Time;durP1;ratioP1;P1;durP2;ratioP2;P2;SDS_P1;SDS_P2;PMS_P1;PMS_P2;Temp;Humidity;BMP_temperature;BMP_pressure;BME280_temperature;BME280_humidity;BME280_pressure;Samples;Min_cycle;Max_cycle;Signal;HPM_P1;HPM_P2
2022/04/03 00:00:13;;;;;;;1.58;1.48;;;;;;;;;;5001406;28;20413;-80
2022/04/03 00:02:39;;;;;;;0.77;0.68;;;;;;;;;;5003394;28;20037;-80
2022/04/03 00:05:06;;;;;;;0.60;0.60;;;;;;;;;;5002354;28;20044;-80
2022/04/03 00:07:32;;;;;;;2.22;1.02;;;;;;;;;;5002594;28;20042;-81
2022/04/03 00:09:58;;;;;;;0.73;0.73;;;;;;;;;;5002768;28;20390;-81
2022/04/03 00:12:25;;;;;;;0.38;0.38;;;;;;;;;;5003052;28;20560;-81
2022/04/03 00:14:51;;;;;;;1.00;1.00;;;;;;;;;;5003260;28;20092;-81
2022/04/03 00:17:17;;;;;;;0.30;0.30;;;;;;;;;;5002932;28;20042;-80
2022/04/03 00:19:44;;;;;;;0.10;0.10;;;;;;;;;;5001211;28;20121;-82
2022/04/03 00:22:12;;;;;;;1.90;1.80;;;;;;;;;;5002520;28;20417;-82
2022/04/03 00:24:39;;;;;;;0.20;0.20;;;;;;;;;;5003468;28;20030;-82
2022/04/03 00:27:05;;;;;;;0.50;0.50;;;;;;;;;;5002735;28;20033;-80
2022/04/03 00:29:31;;;;;;;0.67;0.67;;;;;;;;;;5002993;28;20041;-82
2022/04/03 00:31:57;;;;;;;0.55;0.55;;;;;;;;;;5003022;28;20042;-81
2022/04/03 00:34:23;;;;;;;0.32;0.32;;;;;;;;;;5000744;28;20061;-81
2022/04/03 00:36:49;;;;;;;3.57;3.10;;;;;;;;;;5001203;28;20042;-80
2022/04/03 00:39:15;;;;;;;3.40;3.00;;;;;;;;;;5003195;28;20512;-79
2022/04/03 00:41:42;;;;;;;4.47;4.18;;;;;;;;;;5002432;28;20814;-79
2022/04/03 00:44:08;;;;;;;6.88;5.47;;;;;;;;;;5001469;28;20049;-79
2022/04/03 00:46:36;;;;;;;2.87;2.70;;;;;;;;;;5001757;28;20034;-79
2022/04/03 00:49:02;;;;;;;0.95;0.95;;;;;;;;;;5002599;28;20982;-80
2022/04/03 00:51:29;;;;;;;2.05;1.95;;;;;;;;;;5003521;28;20056;-79
2022/04/03 00:53:55;;;;;;;0.80;0.80;;;;;;;;;;5002742;28;20030;-80
2022/04/03 00:56:21;;;;;;;8.07;1.95;;;;;;;;;;5000296;28;20281;-80
2022/04/03 00:58:48;;;;;;;2.20;2.03;;;;;;;;;;5002936;28;20115;-79
2022/04/03 01:01:14;;;;;;;0.75;0.75;;;;;;;;;;5003307;28;20284;-79
2022/04/03 01:03:40;;;;;;;1.30;1.27;;;;;;;;;;5001281;28;20037;-81
2022/04/03 01:06:06;;;;;;;0.35;0.35;;;;;;;;;;5002806;28;20068;-80
2022/04/03 01:08:33;;;;;;;0.60;0.60;;;;;;;;;;4995579;28;20221;-83
2022/04/03 01:10:59;;;;;;;0.20;0.20;;;;;;;;;;5001186;28;20296;-84
2022/04/03 01:13:25;;;;;;;1.67;0.80;;;;;;;;;;5002984;28;20045;-83
2022/04/03 01:15:52;;;;;;;0.10;0.10;;;;;;;;;;5002959;28;20038;-83
2022/04/03 01:18:18;;;;;;;0.10;0.10;;;;;;;;;;5003122;28;20803;-81
2022/04/03 01:20:44;;;;;;;0.22;0.22;;;;;;;;;;5002784;28;20042;-83
2022/04/03 01:23:10;;;;;;;0.30;0.30;;;;;;;;;;5001652;28;20057;-80
2022/04/03 01:25:36;;;;;;;0.32;0.32;;;;;;;;;;5001077;28;20284;-81
2022/04/03 01:28:02;;;;;;;0.30;0.30;;;;;;;;;;5000626;28;20412;-81
2022/04/03 01:30:28;;;;;;;0.43;0.43;;;;;;;;;;5002641;28;20030;-78
2022/04/03 01:32:55;;;;;;;0.73;0.73;;;;;;;;;;5001972;28;20117;-78
2022/04/03 01:35:22;;;;;;;0.20;0.20;;;;;;;;;;5002756;28;20068;-80
2022/04/03 01:37:49;;;;;;;0.40;0.40;;;;;;;;;;5009811;28;20293;-78
2022/04/03 01:40:15;;;;;;;0.40;0.40;;;;;;;;;;5000154;28;20180;-77
2022/04/03 01:42:41;;;;;;;0.20;0.20;;;;;;;;;;5001127;28;20301;-77
2022/04/03 01:45:07;;;;;;;0.30;0.30;;;;;;;;;;5003523;28;20273;-77
2022/04/03 01:47:34;;;;;;;0.30;0.30;;;;;;;;;;5004599;28;20132;-77
2022/04/03 01:50:00;;;;;;;;;;;;;;;;;;5005629;28;20084;-77
2022/04/03 01:52:26;;;;;;;1.38;1.08;;;;;;;;;;5005142;28;19913;-77
2022/04/03 01:54:52;;;;;;;0.30;0.30;;;;;;;;;;5005434;28;20489;-77
2022/04/03 01:57:18;;;;;;;0.13;0.13;;;;;;;;;;5006291;28;20084;-77
2022/04/03 01:59:44;;;;;;;0.30;0.30;;;;;;;;;;5005431;28;20548;-77
2022/04/03 02:02:11;;;;;;;0.10;0.10;;;;;;;;;;5004611;28;20026;-78
2022/04/03 02:04:38;;;;;;;1.85;1.73;;;;;;;;;;5004450;28;20036;-79
2022/04/03 02:07:04;;;;;;;0.30;0.30;;;;;;;;;;5004807;28;20557;-80
2022/04/03 02:09:30;;;;;;;0.10;0.10;;;;;;;;;;5004706;28;20442;-78
2022/04/03 02:11:57;;;;;;;0.35;0.35;;;;;;;;;;5005121;28;20034;-79
2022/04/03 02:14:24;;;;;;;0.38;0.38;;;;;;;;;;5004561;28;20053;-78
2022/04/03 02:16:52;;;;;;;0.75;0.75;;;;;;;;;;4999803;28;20026;-79
2022/04/03 02:19:19;;;;;;;0.30;0.30;;;;;;;;;;5004050;28;20536;-79
2022/04/03 02:21:44;;;;;;;;;;;;;;;;;;5002161;28;20179;-79
2022/04/03 02:24:11;;;;;;;0.10;0.10;;;;;;;;;;5005033;28;19939;-79
2022/04/03 02:26:37;;;;;;;0.30;0.30;;;;;;;;;;4994378;28;20030;-79
2022/04/03 02:29:03;;;;;;;0.50;0.50;;;;;;;;;;4997246;28;20478;-80
2022/04/03 02:31:29;;;;;;;0.77;0.77;;;;;;;;;;5005348;28;20414;-80
2022/04/03 02:33:55;;;;;;;0.52;0.38;;;;;;;;;;5004310;28;20056;-80
2022/04/03 02:36:21;;;;;;;0.20;0.20;;;;;;;;;;5005683;28;20029;-80
2022/04/03 02:38:47;;;;;;;0.20;0.20;;;;;;;;;;5004340;28;20033;-80
2022/04/03 02:41:13;;;;;;;0.17;0.17;;;;;;;;;;5002824;28;20537;-79
2022/04/03 02:43:39;;;;;;;0.35;0.35;;;;;;;;;;5005177;28;20037;-80
2022/04/03 02:46:06;;;;;;;0.20;0.20;;;;;;;;;;5004128;28;20030;-80
2022/04/03 02:48:33;;;;;;;0.10;0.10;;;;;;;;;;5005501;28;20330;-80
2022/04/03 02:50:59;;;;;;;0.10;0.10;;;;;;;;;;5002762;28;20019;-80
2022/04/03 02:53:25;;;;;;;0.20;0.20;;;;;;;;;;5004512;28;20417;-80
2022/04/03 02:55:52;;;;;;;0.10;0.10;;;;;;;;;;5002296;28;20084;-80
2022/04/03 02:58:18;;;;;;;1.07;1.00;;;;;;;;;;5002230;28;20886;-81
2022/04/03 03:00:45;;;;;;;0.13;0.13;;;;;;;;;;4991262;28;20314;-80
2022/04/03 03:03:11;;;;;;;0.17;0.17;;;;;;;;;;5003429;28;20096;-80
2022/04/03 03:05:38;;;;;;;0.40;0.40;;;;;;;;;;5004237;28;20117;-80
2022/04/03 03:08:04;;;;;;;0.30;0.30;;;;;;;;;;4999903;28;20030;-80
2022/04/03 03:10:31;;;;;;;4.57;1.73;;;;;;;;;;5004292;28;20061;-80
2022/04/03 03:12:57;;;;;;;0.10;0.10;;;;;;;;;;5004547;28;20532;-80
2022/04/03 03:15:23;;;;;;;0.10;0.10;;;;;;;;;;5003270;28;20069;-80
2022/04/03 03:17:49;;;;;;;0.30;0.30;;;;;;;;;;5000421;28;20073;-77
2022/04/03 03:20:16;;;;;;;0.77;0.77;;;;;;;;;;5000269;28;20034;-77
2022/04/03 03:22:42;;;;;;;0.20;0.20;;;;;;;;;;5001031;28;20042;-77
2022/04/03 03:25:09;;;;;;;0.10;0.10;;;;;;;;;;4988399;28;20080;-78
2022/04/03 03:27:39;;;;;;;0.10;0.10;;;;;;;;;;5004994;28;20095;-78
2022/04/03 03:30:06;;;;;;;0.20;0.20;;;;;;;;;;5002100;28;20030;-75
2022/04/03 03:32:32;;;;;;;;;;;;;;;;;;5004412;28;20033;-75
2022/04/03 03:34:59;;;;;;;0.55;0.55;;;;;;;;;;5003380;28;19968;-76
2022/04/03 03:37:25;;;;;;;0.63;0.63;;;;;;;;;;5003740;28;20096;-75
2022/04/03 03:39:53;;;;;;;0.17;0.17;;;;;;;;;;4995194;28;20035;-76
2022/04/03 03:42:19;;;;;;;0.10;0.10;;;;;;;;;;5000881;28;20073;-76
2022/04/03 03:44:45;;;;;;;0.25;0.25;;;;;;;;;;5003607;28;20038;-75
2022/04/03 03:47:11;;;;;;;0.10;0.10;;;;;;;;;;5003722;28;20045;-76
2022/04/03 03:49:38;;;;;;;0.15;0.15;;;;;;;;;;5003660;28;20083;-76
2022/04/03 03:52:05;;;;;;;1.27;1.17;;;;;;;;;;5003367;28;20041;-76
2022/04/03 03:54:31;;;;;;;0.22;0.22;;;;;;;;;;5004337;28;20065;-76
2022/04/03 03:56:58;;;;;;;1.00;0.53;;;;;;;;;;5003558;28;20493;-76
2022/04/03 03:59:25;;;;;;;0.30;0.30;;;;;;;;;;5003647;28;20333;-76
2022/04/03 04:01:51;;;;;;;0.30;0.30;;;;;;;;;;5003593;28;20076;-76
2022/04/03 04:04:17;;;;;;;0.80;0.80;;;;;;;;;;5002950;28;20105;-76
2022/04/03 04:06:43;;;;;;;0.10;0.10;;;;;;;;;;5003516;28;20347;-77
2022/04/03 04:09:09;;;;;;;0.50;0.38;;;;;;;;;;5003700;28;20038;-78
2022/04/03 04:11:35;;;;;;;0.63;0.63;;;;;;;;;;5002018;28;20034;-79
2022/04/03 04:14:01;;;;;;;0.10;0.10;;;;;;;;;;5003239;28;20029;-79
2022/04/03 04:16:27;;;;;;;0.20;0.20;;;;;;;;;;5003323;28;20029;-79
2022/04/03 04:18:53;;;;;;;0.10;0.10;;;;;;;;;;5003521;28;20771;-79
2022/04/03 04:21:19;;;;;;;0.10;0.10;;;;;;;;;;5003559;28;20026;-79
2022/04/03 04:23:45;;;;;;;0.13;0.13;;;;;;;;;;5003400;28;20088;-79
2022/04/03 04:26:13;;;;;;;0.10;0.10;;;;;;;;;;5002322;28;20033;-78
2022/04/03 04:28:39;;;;;;;0.38;0.38;;;;;;;;;;5003106;28;20049;-83
2022/04/03 04:31:05;;;;;;;0.10;0.10;;;;;;;;;;5002786;28;20037;-82
2022/04/03 04:33:31;;;;;;;0.10;0.10;;;;;;;;;;5003613;28;20277;-82
2022/04/03 04:35:57;;;;;;;0.70;0.70;;;;;;;;;;5002662;28;20072;-79
2022/04/03 04:38:23;;;;;;;0.10;0.10;;;;;;;;;;5003201;28;20032;-80
2022/04/03 04:40:49;;;;;;;0.22;0.22;;;;;;;;;;5002867;28;20046;-80
2022/04/03 04:43:15;;;;;;;0.40;0.40;;;;;;;;;;5002679;28;20123;-80
2022/04/03 04:45:41;;;;;;;0.73;0.73;;;;;;;;;;5003077;28;20112;-79
2022/04/03 04:48:07;;;;;;;0.10;0.10;;;;;;;;;;5003224;28;20042;-79
2022/04/03 04:50:33;;;;;;;0.20;0.20;;;;;;;;;;5002350;28;20034;-79
2022/04/03 04:52:59;;;;;;;0.30;0.30;;;;;;;;;;5002740;28;20343;-79
2022/04/03 04:55:26;;;;;;;1.50;1.40;;;;;;;;;;5003153;28;20054;-79
2022/04/03 04:57:56;;;;;;;0.20;0.20;;;;;;;;;;5002763;28;20125;-79
2022/04/03 05:00:23;;;;;;;1.98;0.90;;;;;;;;;;5001771;28;20121;-77
2022/04/03 05:02:48;;;;;;;;;;;;;;;;;;5003212;28;20110;-77
2022/04/03 05:05:15;;;;;;;0.20;0.20;;;;;;;;;;5003054;28;19921;-77
2022/04/03 05:07:41;;;;;;;0.10;0.10;;;;;;;;;;5002924;28;20068;-79
2022/04/03 05:10:08;;;;;;;0.43;0.43;;;;;;;;;;5002522;28;20033;-79
2022/04/03 05:12:35;;;;;;;0.25;0.25;;;;;;;;;;4999223;28;20049;-77
2022/04/03 05:15:02;;;;;;;0.65;0.57;;;;;;;;;;4992284;28;20056;-78
2022/04/03 05:17:28;;;;;;;0.13;0.13;;;;;;;;;;4997691;28;20030;-78
2022/04/03 05:19:55;;;;;;;0.30;0.30;;;;;;;;;;5003558;28;20026;-78
2022/04/03 05:22:23;;;;;;;;;;;;;;;;;;5007084;28;20038;-78
2022/04/03 05:24:50;;;;;;;0.55;0.55;;;;;;;;;;5006507;28;19913;-78
2022/04/03 05:27:16;;;;;;;0.57;0.57;;;;;;;;;;5006491;28;20506;-79
2022/04/03 05:29:43;;;;;;;0.10;0.10;;;;;;;;;;5005883;28;20038;-79
2022/04/03 05:32:09;;;;;;;;;;;;;;;;;;5006616;28;20572;-78
2022/04/03 05:34:35;;;;;;;0.20;0.20;;;;;;;;;;5006128;28;20007;-78
2022/04/03 05:37:01;;;;;;;3.15;1.38;;;;;;;;;;5005774;28;20037;-82
2022/04/03 05:39:27;;;;;;;2.28;1.65;;;;;;;;;;5006585;28;20037;-82
2022/04/03 05:41:55;;;;;;;0.10;0.10;;;;;;;;;;5006309;28;20149;-82
2022/04/03 05:44:21;;;;;;;0.10;0.10;;;;;;;;;;5006182;28;20030;-81
2022/04/03 05:46:48;;;;;;;0.10;0.10;;;;;;;;;;4995967;28;20049;-82
2022/04/03 05:49:14;;;;;;;0.17;0.17;;;;;;;;;;5005872;28;20041;-79
2022/04/03 05:51:40;;;;;;;0.15;0.15;;;;;;;;;;5006448;28;20042;-79
2022/04/03 05:54:06;;;;;;;1.45;1.35;;;;;;;;;;5005473;28;20053;-81
2022/04/03 05:56:32;;;;;;;0.13;0.13;;;;;;;;;;5005722;28;20084;-81
2022/04/03 05:58:59;;;;;;;0.20;0.20;;;;;;;;;;5005822;28;20025;-81
2022/04/03 06:01:25;;;;;;;0.35;0.35;;;;;;;;;;5005842;28;20037;-84
2022/04/03 06:03:51;;;;;;;0.10;0.10;;;;;;;;;;5005359;28;20038;-78
2022/04/03 06:06:17;;;;;;;0.20;0.20;;;;;;;;;;5006236;28;20084;-79
2022/04/03 06:08:43;;;;;;;47.53;2.38;;;;;;;;;;4997129;28;20026;-77
2022/04/03 06:11:09;;;;;;;0.10;0.10;;;;;;;;;;4997043;28;20103;-77
2022/04/03 06:13:35;;;;;;;0.50;0.50;;;;;;;;;;5005872;28;20358;-77
2022/04/03 06:16:02;;;;;;;0.10;0.10;;;;;;;;;;5005323;28;20477;-76
2022/04/03 06:18:28;;;;;;;0.30;0.30;;;;;;;;;;5006407;28;20417;-76
2022/04/03 06:20:54;;;;;;;0.20;0.20;;;;;;;;;;5005186;28;20029;-76
2022/04/03 06:23:21;;;;;;;0.20;0.20;;;;;;;;;;5005596;28;20042;-77
2022/04/03 06:25:48;;;;;;;0.10;0.10;;;;;;;;;;5005667;28;20855;-76
2022/04/03 06:28:15;;;;;;;0.10;0.10;;;;;;;;;;5005184;28;20061;-76
2022/04/03 06:30:41;;;;;;;0.10;0.10;;;;;;;;;;5005691;28;20037;-77
2022/04/03 06:33:07;;;;;;;0.10;0.10;;;;;;;;;;5005263;28;20470;-76
2022/04/03 06:35:33;;;;;;;0.28;0.28;;;;;;;;;;5004890;28;20054;-76
2022/04/03 06:37:59;;;;;;;0.10;0.10;;;;;;;;;;4994283;28;20104;-78
2022/04/03 06:40:25;;;;;;;0.53;0.50;;;;;;;;;;5003351;28;20836;-78
2022/04/03 06:42:52;;;;;;;0.30;0.30;;;;;;;;;;5004436;28;20033;-77
2022/04/03 06:45:18;;;;;;;0.88;0.88;;;;;;;;;;5005168;28;20030;-79
2022/04/03 06:47:44;;;;;;;1.83;1.70;;;;;;;;;;5004367;28;20406;-78
2022/04/03 06:50:10;;;;;;;0.43;0.43;;;;;;;;;;5001400;28;20058;-84
2022/04/03 06:52:37;;;;;;;0.22;0.22;;;;;;;;;;5004463;28;20038;-83
2022/04/03 06:55:03;;;;;;;0.40;0.40;;;;;;;;;;5004148;28;20030;-84
2022/04/03 06:57:30;;;;;;;0.20;0.20;;;;;;;;;;5004803;28;20042;-85
2022/04/03 06:59:56;;;;;;;0.45;0.35;;;;;;;;;;5004471;28;20026;-84
2022/04/03 07:02:22;;;;;;;0.20;0.20;;;;;;;;;;5003469;28;21001;-84
2022/04/03 07:04:48;;;;;;;0.80;0.80;;;;;;;;;;5002504;28;20390;-84
2022/04/03 07:07:24;;;;;;;1.10;1.10;;;;;;;;;;5004089;28;20045;-83
2022/04/03 07:09:51;;;;;;;0.65;0.55;;;;;;;;;;4994369;28;20386;-83
2022/04/03 07:12:17;;;;;;;0.20;0.20;;;;;;;;;;5004334;28;20041;-84
2022/04/03 07:14:44;;;;;;;0.73;0.73;;;;;;;;;;5003455;28;20045;-83
2022/04/03 07:17:10;;;;;;;0.30;0.30;;;;;;;;;;5004037;28;20279;-82
2022/04/03 07:19:36;;;;;;;0.38;0.38;;;;;;;;;;5004129;28;20137;-83
2022/04/03 07:22:02;;;;;;;0.10;0.10;;;;;;;;;;5003523;28;20073;-84
2022/04/03 07:24:28;;;;;;;0.27;0.27;;;;;;;;;;5004343;28;20125;-82
2022/04/03 07:26:54;;;;;;;0.40;0.40;;;;;;;;;;5003268;28;20049;-80
2022/04/03 07:29:21;;;;;;;0.10;0.10;;;;;;;;;;5003053;28;20040;-80
2022/04/03 07:31:47;;;;;;;0.10;0.10;;;;;;;;;;5001413;28;20065;-80
2022/04/03 07:34:14;;;;;;;0.10;0.10;;;;;;;;;;5001870;28;20452;-80
2022/04/03 07:36:40;;;;;;;0.10;0.10;;;;;;;;;;5002067;28;20045;-80
2022/04/03 07:39:06;;;;;;;0.10;0.10;;;;;;;;;;5008607;28;20067;-80
2022/04/03 07:41:32;;;;;;;0.10;0.10;;;;;;;;;;5002946;28;20418;-80
2022/04/03 07:43:58;;;;;;;0.93;0.93;;;;;;;;;;5002429;28;20556;-81
2022/04/03 07:46:24;;;;;;;0.30;0.30;;;;;;;;;;5003506;28;20029;-80
2022/04/03 07:48:50;;;;;;;0.08;0.08;;;;;;;;;;5003809;28;20104;-79
2022/04/03 07:51:16;;;;;;;0.10;0.10;;;;;;;;;;5003034;28;20021;-78
2022/04/03 07:53:42;;;;;;;1.58;1.08;;;;;;;;;;5003571;28;20042;-78
2022/04/03 07:56:08;;;;;;;0.60;0.60;;;;;;;;;;5003718;28;20571;-78
2022/04/03 07:58:37;;;;;;;2.95;1.10;;;;;;;;;;5001847;28;20044;-79
2022/04/03 08:01:04;;;;;;;2.92;1.20;;;;;;;;;;5002478;28;20069;-80
2022/04/03 08:03:30;;;;;;;0.15;0.15;;;;;;;;;;5003662;28;20517;-81
2022/04/03 08:05:56;;;;;;;2.33;1.25;;;;;;;;;;5003222;28;20050;-79
2022/04/03 08:08:23;;;;;;;0.20;0.20;;;;;;;;;;5003638;28;20041;-80
2022/04/03 08:10:49;;;;;;;0.10;0.10;;;;;;;;;;5003847;28;20033;-79
2022/04/03 08:13:15;;;;;;;1.17;0.75;;;;;;;;;;5001949;28;20041;-84
2022/04/03 08:15:41;;;;;;;0.63;0.60;;;;;;;;;;5003338;28;20060;-83
2022/04/03 08:18:08;;;;;;;0.60;0.60;;;;;;;;;;5003036;28;20029;-81
2022/04/03 08:20:34;;;;;;;1.17;1.17;;;;;;;;;;5002672;28;20022;-84
2022/04/03 08:23:03;;;;;;;0.60;0.60;;;;;;;;;;5000629;28;20042;-84
2022/04/03 08:25:30;;;;;;;0.43;0.43;;;;;;;;;;5002852;28;20448;-84
2022/04/03 08:27:56;;;;;;;0.20;0.20;;;;;;;;;;5000900;28;20401;-83
2022/04/03 08:30:29;;;;;;;0.33;0.33;;;;;;;;;;5003308;28;20053;-84
2022/04/03 08:32:55;;;;;;;0.55;0.55;;;;;;;;;;5002568;28;20061;-84
2022/04/03 08:35:23;;;;;;;0.32;0.32;;;;;;;;;;5002254;28;20026;-84
2022/04/03 08:37:50;;;;;;;0.30;0.30;;;;;;;;;;5002669;28;20048;-83
2022/04/03 08:40:16;;;;;;;0.15;0.15;;;;;;;;;;5000383;28;20045;-84
2022/04/03 08:42:42;;;;;;;0.10;0.10;;;;;;;;;;5003057;28;20044;-84
2022/04/03 08:45:12;;;;;;;0.10;0.10;;;;;;;;;;5002829;28;20030;-84
2022/04/03 08:47:42;;;;;;;0.20;0.20;;;;;;;;;;5002685;28;20874;-84
2022/04/03 08:50:10;;;;;;;0.17;0.17;;;;;;;;;;5002552;28;20069;-85
2022/04/03 08:52:37;;;;;;;0.10;0.10;;;;;;;;;;5003331;28;20132;-84
2022/04/03 08:55:06;;;;;;;0.13;0.13;;;;;;;;;;4988045;28;20033;-85
2022/04/03 08:57:33;;;;;;;0.65;0.65;;;;;;;;;;5007247;28;20088;-84
2022/04/03 09:00:00;;;;;;;0.10;0.10;;;;;;;;;;5007098;28;20529;-84
2022/04/03 09:02:26;;;;;;;1.00;0.70;;;;;;;;;;5006866;28;20119;-84
2022/04/03 09:04:52;;;;;;;0.87;0.87;;;;;;;;;;5006687;28;20096;-78
2022/04/03 09:07:19;;;;;;;0.50;0.50;;;;;;;;;;5007145;28;20608;-81
2022/04/03 09:09:47;;;;;;;0.25;0.25;;;;;;;;;;5006682;28;20036;-86
2022/04/03 09:12:17;;;;;;;0.47;0.32;;;;;;;;;;5013618;28;20034;-83
2022/04/03 09:14:50;;;;;;;0.45;0.45;;;;;;;;;;5006378;28;20034;-82
2022/04/03 09:17:40;;;;;;;0.38;0.38;;;;;;;;;;5004017;28;20034;-84
2022/04/03 09:20:12;;;;;;;0.08;0.08;;;;;;;;;;5006317;28;20029;-84
2022/04/03 09:22:39;;;;;;;0.65;0.40;;;;;;;;;;5006512;28;20037;-84
2022/04/03 09:25:06;;;;;;;0.10;0.10;;;;;;;;;;5006585;28;20030;-84
2022/04/03 09:27:34;;;;;;;0.08;0.08;;;;;;;;;;5000887;28;20045;-80
2022/04/03 09:30:02;;;;;;;0.40;0.40;;;;;;;;;;5005760;28;20575;-84
2022/04/03 09:32:28;;;;;;;0.08;0.08;;;;;;;;;;5001859;28;20049;-80
2022/04/03 09:34:57;;;;;;;0.43;0.43;;;;;;;;;;5000865;28;20025;-81
2022/04/03 09:37:24;;;;;;;0.32;0.32;;;;;;;;;;5005388;28;20045;-83
2022/04/03 09:39:50;;;;;;;0.20;0.20;;;;;;;;;;5006139;28;20042;-82
2022/04/03 09:42:17;;;;;;;0.08;0.08;;;;;;;;;;5006375;28;20068;-82
2022/04/03 09:44:44;;;;;;;0.70;0.70;;;;;;;;;;5004667;28;20045;-83
2022/04/03 09:47:10;;;;;;;;;;;;;;;;;;5005932;28;20050;-80
2022/04/03 09:49:36;;;;;;;0.00;0.00;;;;;;;;;;5005259;28;19987;-81
2022/04/03 09:52:02;;;;;;;0.10;0.10;;;;;;;;;;5003725;28;20037;-81
2022/04/03 09:54:28;;;;;;;0.43;0.43;;;;;;;;;;5005749;28;20563;-81
2022/04/03 09:56:54;;;;;;;0.30;0.30;;;;;;;;;;5004798;28;20067;-81
2022/04/03 09:59:20;;;;;;;0.00;0.00;;;;;;;;;;5003832;28;20064;-83
2022/04/03 10:01:46;;;;;;;0.13;0.13;;;;;;;;;;5004534;28;20103;-81
2022/04/03 10:04:16;;;;;;;0.20;0.20;;;;;;;;;;4994139;28;20029;-82
2022/04/03 10:06:42;;;;;;;0.03;0.03;;;;;;;;;;5004968;28;20104;-81
2022/04/03 10:09:11;;;;;;;0.32;0.32;;;;;;;;;;5005403;28;20018;-81
2022/04/03 10:11:38;;;;;;;0.10;0.10;;;;;;;;;;5005281;28;20391;-81
2022/04/03 10:14:06;;;;;;;0.20;0.20;;;;;;;;;;5005245;28;20825;-82
2022/04/03 10:16:32;;;;;;;0.00;0.00;;;;;;;;;;5000505;28;20038;-82
2022/04/03 10:18:58;;;;;;;0.00;0.00;;;;;;;;;;5000784;28;20080;-82
2022/04/03 10:21:33;;;;;;;0.00;0.00;;;;;;;;;;5005107;28;20039;-82
2022/04/03 10:24:03;;;;;;;0.10;0.10;;;;;;;;;;5005169;28;20038;-82
2022/04/03 10:26:33;;;;;;;0.17;0.17;;;;;;;;;;5004310;28;20040;-82
2022/04/03 10:28:59;;;;;;;0.00;0.00;;;;;;;;;;5003079;28;20176;-82
2022/04/03 10:31:26;;;;;;;0.10;0.10;;;;;;;;;;5005067;28;20030;-82
2022/04/03 10:33:52;;;;;;;0.52;0.52;;;;;;;;;;5004933;28;20044;-82
2022/04/03 10:36:26;;;;;;;0.38;0.38;;;;;;;;;;5005113;28;20103;-83
2022/04/03 10:39:08;;;;;;;0.10;0.10;;;;;;;;;;5001641;28;20567;-82
2022/04/03 10:41:43;;;;;;;0.75;0.32;;;;;;;;;;5003556;28;20064;-82
2022/04/03 10:44:18;;;;;;;0.10;0.10;;;;;;;;;;5003486;28;20042;-83
2022/04/03 10:47:03;;;;;;;0.00;0.00;;;;;;;;;;5004452;28;20497;-83
2022/04/03 10:49:47;;;;;;;0.20;0.20;;;;;;;;;;5004472;28;20497;-83
2022/04/03 10:52:22;;;;;;;0.10;0.10;;;;;;;;;;5003319;28;20033;-82
2022/04/03 10:54:53;;;;;;;0.35;0.35;;;;;;;;;;5004065;28;20733;-82
2022/04/03 10:57:34;;;;;;;0.30;0.30;;;;;;;;;;5003090;28;20037;-83
2022/04/03 11:00:12;;;;;;;0.55;0.52;;;;;;;;;;5003707;28;20037;-82
2022/04/03 11:02:41;;;;;;;0.35;0.30;;;;;;;;;;5003977;28;20034;-82
2022/04/03 11:05:25;;;;;;;0.10;0.10;;;;;;;;;;5000981;28;20025;-82
2022/04/03 11:07:51;;;;;;;0.05;0.05;;;;;;;;;;4998208;28;20048;-85
2022/04/03 11:10:36;;;;;;;0.20;0.20;;;;;;;;;;5004432;28;20030;-84
2022/04/03 11:13:02;;;;;;;0.35;0.35;;;;;;;;;;5010372;28;20157;-84
2022/04/03 11:15:42;;;;;;;0.83;0.53;;;;;;;;;;5004503;28;20823;-84
2022/04/03 11:18:27;;;;;;;0.30;0.30;;;;;;;;;;5002713;28;20406;-84
2022/04/03 11:21:12;;;;;;;0.22;0.22;;;;;;;;;;5003181;28;20053;-84
2022/04/03 11:23:43;;;;;;;0.32;0.32;;;;;;;;;;5002251;28;20041;-84
2022/04/03 11:26:09;;;;;;;0.17;0.17;;;;;;;;;;5003461;28;20033;-83
2022/04/03 11:28:35;;;;;;;0.10;0.10;;;;;;;;;;5003988;28;20137;-84
2022/04/03 11:31:02;;;;;;;0.80;0.80;;;;;;;;;;5003391;28;20041;-83
2022/04/03 11:33:31;;;;;;;3.10;1.10;;;;;;;;;;5003944;28;20536;-83
2022/04/03 11:36:13;;;;;;;0.00;0.00;;;;;;;;;;5004012;28;20202;-83
2022/04/03 11:38:43;;;;;;;0.30;0.30;;;;;;;;;;5003055;28;20410;-83
2022/04/03 11:41:29;;;;;;;0.05;0.05;;;;;;;;;;5003839;28;20045;-84
2022/04/03 11:43:58;;;;;;;0.00;0.00;;;;;;;;;;4997650;28;20034;-82
2022/04/03 11:46:24;;;;;;;0.45;0.45;;;;;;;;;;5003365;28;20069;-83
2022/04/03 11:48:50;;;;;;;0.90;0.90;;;;;;;;;;5003595;28;20452;-82
2022/04/03 11:51:18;;;;;;;0.13;0.13;;;;;;;;;;5003697;28;20037;-83
2022/04/03 11:53:46;;;;;;;0.30;0.30;;;;;;;;;;5003570;28;20038;-82
2022/04/03 11:56:16;;;;;;;0.20;0.20;;;;;;;;;;5002934;28;20133;-83
2022/04/03 11:58:48;;;;;;;0.40;0.40;;;;;;;;;;5003032;28;20084;-82
2022/04/03 12:01:14;;;;;;;0.22;0.22;;;;;;;;;;5002613;28;20036;-83
2022/04/03 12:03:40;;;;;;;0.10;0.10;;;;;;;;;;5003279;28;20033;-82
2022/04/03 12:06:10;;;;;;;0.10;0.10;;;;;;;;;;5002687;28;20104;-82
2022/04/03 12:08:37;;;;;;;0.00;0.00;;;;;;;;;;5000567;28;20032;-83
2022/04/03 12:11:15;;;;;;;1.00;0.77;;;;;;;;;;5001278;28;20129;-84
2022/04/03 12:13:41;;;;;;;0.00;0.00;;;;;;;;;;5000809;28;20030;-84
2022/04/03 12:16:07;;;;;;;0.08;0.08;;;;;;;;;;5001495;28;20061;-83
2022/04/03 12:18:48;;;;;;;0.10;0.10;;;;;;;;;;5000823;28;20033;-84
2022/04/03 12:21:14;;;;;;;0.40;0.40;;;;;;;;;;5001432;28;20041;-83
2022/04/03 12:24:00;;;;;;;0.03;0.03;;;;;;;;;;4999280;28;20034;-82
2022/04/03 12:26:26;;;;;;;0.55;0.55;;;;;;;;;;5002258;28;20049;-82
2022/04/03 12:28:52;;;;;;;0.47;0.47;;;;;;;;;;5002503;28;20531;-82
2022/04/03 12:31:18;;;;;;;0.22;0.22;;;;;;;;;;5003097;28;20034;-81
2022/04/03 12:33:44;;;;;;;0.95;0.28;;;;;;;;;;5002521;28;20604;-82
2022/04/03 12:36:10;;;;;;;0.10;0.10;;;;;;;;;;5002689;28;20065;-81
2022/04/03 12:38:36;;;;;;;0.20;0.20;;;;;;;;;;5002648;28;20033;-82
2022/04/03 12:41:04;;;;;;;0.40;0.40;;;;;;;;;;5002630;28;20057;-82
2022/04/03 12:43:42;;;;;;;0.10;0.10;;;;;;;;;;4996012;28;20146;-82
2022/04/03 12:46:08;;;;;;;0.15;0.15;;;;;;;;;;5001884;28;20038;-82
2022/04/03 12:48:35;;;;;;;0.10;0.10;;;;;;;;;;5003289;28;20041;-82
2022/04/03 12:51:10;;;;;;;0.08;0.08;;;;;;;;;;5000167;28;20034;-81
2022/04/03 12:53:48;;;;;;;0.75;0.63;;;;;;;;;;5000028;28;20503;-82
2022/04/03 12:56:15;;;;;;;0.40;0.40;;;;;;;;;;5002223;28;20030;-82
2022/04/03 12:58:43;;;;;;;;;;;;;;;;;;5002882;28;20069;-82
2022/04/03 13:01:15;;;;;;;0.20;0.20;;;;;;;;;;4986894;28;19917;-82
2022/04/03 13:03:42;;;;;;;0.10;0.10;;;;;;;;;;4999425;28;20117;-82
2022/04/03 13:06:11;;;;;;;0.30;0.30;;;;;;;;;;5003072;28;20084;-82
2022/04/03 13:08:41;;;;;;;0.15;0.15;;;;;;;;;;5002698;28;20069;-82
2022/04/03 13:11:07;;;;;;;0.43;0.32;;;;;;;;;;5002692;28;20123;-81
2022/04/03 13:13:35;;;;;;;0.77;0.77;;;;;;;;;;5002866;28;20516;-82
2022/04/03 13:16:01;;;;;;;2.20;0.75;;;;;;;;;;5002813;28;20088;-82
2022/04/03 13:18:27;;;;;;;1.00;0.82;;;;;;;;;;5003374;28;20088;-81
2022/04/03 13:20:53;;;;;;;0.20;0.20;;;;;;;;;;5002610;28;20520;-82
2022/04/03 13:23:20;;;;;;;3.65;1.85;;;;;;;;;;5002423;28;20330;-82
2022/04/03 13:25:47;;;;;;;0.45;0.45;;;;;;;;;;5001619;28;20598;-82
2022/04/03 13:28:20;;;;;;;0.00;0.00;;;;;;;;;;5002561;28;20041;-82
2022/04/03 13:30:49;;;;;;;0.20;0.20;;;;;;;;;;5001152;28;20034;-81
2022/04/03 13:33:16;;;;;;;0.10;0.10;;;;;;;;;;5001953;28;20030;-82
2022/04/03 13:35:42;;;;;;;0.10;0.10;;;;;;;;;;5002037;28;20667;-82
2022/04/03 13:38:09;;;;;;;0.15;0.15;;;;;;;;;;5002082;28;20061;-82
2022/04/03 13:40:35;;;;;;;0.40;0.40;;;;;;;;;;5002859;28;20037;-82
2022/04/03 13:43:02;;;;;;;0.10;0.10;;;;;;;;;;5005739;28;20042;-82
2022/04/03 13:48:13;;;;;;;17.83;0.68;;;;;;;;;;5006139;28;20126;-81
2022/04/03 13:50:39;;;;;;;0.10;0.10;;;;;;;;;;5005819;28;20140;-82
2022/04/03 13:53:05;;;;;;;0.00;0.00;;;;;;;;;;5005751;28;20080;-81
2022/04/03 13:55:32;;;;;;;0.43;0.43;;;;;;;;;;5004458;28;20030;-81
2022/04/03 13:57:58;;;;;;;0.70;0.70;;;;;;;;;;5005582;28;20122;-82
2022/04/03 14:00:24;;;;;;;0.20;0.20;;;;;;;;;;5000553;28;20471;-81
2022/04/03 14:02:51;;;;;;;0.10;0.10;;;;;;;;;;5005916;28;20038;-82
2022/04/03 14:05:17;;;;;;;0.73;0.73;;;;;;;;;;5005804;28;20105;-82
2022/04/03 14:07:44;;;;;;;0.10;0.10;;;;;;;;;;5006151;28;20046;-84
2022/04/03 14:10:10;;;;;;;0.10;0.10;;;;;;;;;;4990247;28;20026;-83
2022/04/03 14:12:38;;;;;;;0.20;0.20;;;;;;;;;;5006069;28;20034;-84
2022/04/03 14:15:05;;;;;;;0.20;0.20;;;;;;;;;;5005312;28;20673;-83
2022/04/03 14:17:31;;;;;;;0.20;0.20;;;;;;;;;;5005928;28;20044;-84
2022/04/03 14:19:57;;;;;;;0.10;0.10;;;;;;;;;;5005565;28;20053;-83
2022/04/03 14:22:23;;;;;;;0.10;0.10;;;;;;;;;;5001767;28;20030;-83
2022/04/03 14:24:49;;;;;;;0.23;0.23;;;;;;;;;;5005393;28;20045;-84
2022/04/03 14:27:15;;;;;;;0.10;0.10;;;;;;;;;;4988123;28;20534;-83
2022/04/03 14:29:41;;;;;;;0.38;0.38;;;;;;;;;;5002280;28;20412;-84
2022/04/03 14:32:08;;;;;;;0.10;0.10;;;;;;;;;;5005182;28;20030;-84
2022/04/03 14:34:34;;;;;;;0.55;0.40;;;;;;;;;;5005370;28;20033;-84
2022/04/03 14:37:00;;;;;;;0.00;0.00;;;;;;;;;;5005779;28;20936;-83
2022/04/03 14:39:27;;;;;;;0.15;0.15;;;;;;;;;;5005939;28;20060;-84
2022/04/03 14:41:53;;;;;;;0.55;0.55;;;;;;;;;;5000676;28;20136;-83
2022/04/03 14:44:20;;;;;;;;;;;;;;;;;;5005937;28;20037;-84
2022/04/03 14:46:47;;;;;;;0.00;0.00;;;;;;;;;;5005204;28;20032;-83
2022/04/03 14:49:13;;;;;;;0.00;0.00;;;;;;;;;;5005582;28;20030;-83